sensor_id;sensor_type;location;lat;lon;timestamp;P1;durP1;ratioP1;P2;durP2;ratioP2
25567;SDS011;13455;51.480;7.594;2023-03-12T00:01:11;15.02;;;7.10;;
25567;SDS011;13455;51.480;7.594;2023-03-12T00:03:37;11.57;;;6.38;;
25567;SDS011;13455;51.480;7.594;2023-03-12T00:06:04;12.37;;;6.40;;
25567;SDS011;13455;51.480;7.594;2023-03-12T00:08:31;12.68;;;6.00;;
25567;SDS011;13455;51.480;7.594;2023-03-12T00:10:56;11.43;;;6.00;;
25567;SDS011;13455;51.480;7.594;2023-03-12T00:13:22;10.13;;;5.87;;
25567;SDS011;13455;51.480;7.594;2023-03-12T00:15:47;11.87;;;5.87;;
25567;SDS011;13455;51.480;7.594;2023-03-12T00:18:13;13.90;;;5.90;;
25567;SDS011;13455;51.480;7.594;2023-03-12T00:20:39;12.48;;;5.95;;
25567;SDS011;13455;51.480;7.594;2023-03-12T00:23:05;12.93;;;6.07;;
25567;SDS011;13455;51.480;7.594;2023-03-12T00:25:31;11.05;;;5.30;;
25567;SDS011;13455;51.480;7.594;2023-03-12T00:27:57;10.68;;;5.60;;
25567;SDS011;13455;51.480;7.594;2023-03-12T00:30:22;12.55;;;5.32;;
25567;SDS011;13455;51.480;7.594;2023-03-12T00:32:50;11.77;;;5.28;;
25567;SDS011;13455;51.480;7.594;2023-03-12T00:35:16;12.43;;;5.68;;
25567;SDS011;13455;51.480;7.594;2023-03-12T00:37:42;11.93;;;5.38;;
25567;SDS011;13455;51.480;7.594;2023-03-12T00:40:07;10.47;;;5.57;;
25567;SDS011;13455;51.480;7.594;2023-03-12T00:42:35;11.13;;;5.63;;
25567;SDS011;13455;51.480;7.594;2023-03-12T00:45:00;10.33;;;5.57;;
25567;SDS011;13455;51.480;7.594;2023-03-12T00:47:26;12.18;;;5.40;;
25567;SDS011;13455;51.480;7.594;2023-03-12T00:49:52;9.03;;;4.80;;
25567;SDS011;13455;51.480;7.594;2023-03-12T00:52:18;9.60;;;5.07;;
25567;SDS011;13455;51.480;7.594;2023-03-12T00:54:43;9.23;;;4.60;;
25567;SDS011;13455;51.480;7.594;2023-03-12T00:57:09;10.20;;;4.63;;
25567;SDS011;13455;51.480;7.594;2023-03-12T00:59:34;9.32;;;4.47;;
25567;SDS011;13455;51.480;7.594;2023-03-12T01:02:04;7.65;;;4.07;;
25567;SDS011;13455;51.480;7.594;2023-03-12T01:04:30;9.50;;;4.53;;
25567;SDS011;13455;51.480;7.594;2023-03-12T01:06:56;10.35;;;4.50;;
25567;SDS011;13455;51.480;7.594;2023-03-12T01:09:21;10.38;;;4.53;;
25567;SDS011;13455;51.480;7.594;2023-03-12T01:11:47;11.68;;;4.78;;
25567;SDS011;13455;51.480;7.594;2023-03-12T01:14:12;9.77;;;4.70;;
25567;SDS011;13455;51.480;7.594;2023-03-12T01:16:38;10.03;;;4.60;;
25567;SDS011;13455;51.480;7.594;2023-03-12T01:19:04;8.77;;;4.53;;
25567;SDS011;13455;51.480;7.594;2023-03-12T01:21:29;8.88;;;4.53;;
25567;SDS011;13455;51.480;7.594;2023-03-12T01:23:55;9.88;;;5.05;;
25567;SDS011;13455;51.480;7.594;2023-03-12T01:26:21;13.77;;;5.10;;
25567;SDS011;13455;51.480;7.594;2023-03-12T01:28:47;11.87;;;5.23;;
25567;SDS011;13455;51.480;7.594;2023-03-12T01:31:14;10.82;;;5.65;;
25567;SDS011;13455;51.480;7.594;2023-03-12T01:33:43;9.88;;;5.30;;
25567;SDS011;13455;51.480;7.594;2023-03-12T01:36:42;9.93;;;5.28;;
25567;SDS011;13455;51.480;7.594;2023-03-12T01:39:03;12.97;;;5.67;;
25567;SDS011;13455;51.480;7.594;2023-03-12T01:41:29;11.63;;;5.20;;
25567;SDS011;13455;51.480;7.594;2023-03-12T01:43:56;11.18;;;5.40;;
25567;SDS011;13455;51.480;7.594;2023-03-12T01:49:02;10.88;;;5.25;;
25567;SDS011;13455;51.480;7.594;2023-03-12T01:54:05;11.43;;;5.32;;
25567;SDS011;13455;51.480;7.594;2023-03-12T01:56:35;12.65;;;5.53;;
25567;SDS011;13455;51.480;7.594;2023-03-12T01:59:04;11.53;;;5.60;;
25567;SDS011;13455;51.480;7.594;2023-03-12T02:01:34;11.05;;;5.35;;
25567;SDS011;13455;51.480;7.594;2023-03-12T02:04:01;11.60;;;5.55;;
25567;SDS011;13455;51.480;7.594;2023-03-12T02:06:35;11.53;;;5.43;;
25567;SDS011;13455;51.480;7.594;2023-03-12T02:09:05;11.07;;;5.30;;
25567;SDS011;13455;51.480;7.594;2023-03-12T02:11:31;10.82;;;5.05;;
25567;SDS011;13455;51.480;7.594;2023-03-12T02:13:57;10.80;;;4.77;;
25567;SDS011;13455;51.480;7.594;2023-03-12T02:16:23;9.33;;;4.80;;
25567;SDS011;13455;51.480;7.594;2023-03-12T02:18:49;9.32;;;4.63;;
25567;SDS011;13455;51.480;7.594;2023-03-12T02:21:22;9.05;;;4.88;;
25567;SDS011;13455;51.480;7.594;2023-03-12T02:26:56;9.20;;;4.50;;
25567;SDS011;13455;51.480;7.594;2023-03-12T02:29:22;9.40;;;4.72;;
25567;SDS011;13455;51.480;7.594;2023-03-12T02:31:51;9.98;;;4.63;;
25567;SDS011;13455;51.480;7.594;2023-03-12T02:34:19;9.73;;;4.75;;
25567;SDS011;13455;51.480;7.594;2023-03-12T02:36:44;8.73;;;4.28;;
25567;SDS011;13455;51.480;7.594;2023-03-12T02:39:11;9.20;;;4.20;;
25567;SDS011;13455;51.480;7.594;2023-03-12T02:41:40;8.37;;;4.23;;
25567;SDS011;13455;51.480;7.594;2023-03-12T02:44:17;11.10;;;3.92;;
25567;SDS011;13455;51.480;7.594;2023-03-12T02:46:44;9.18;;;4.28;;
25567;SDS011;13455;51.480;7.594;2023-03-12T02:49:15;10.07;;;4.20;;
25567;SDS011;13455;51.480;7.594;2023-03-12T02:51:42;7.80;;;3.90;;
25567;SDS011;13455;51.480;7.594;2023-03-12T02:54:09;9.67;;;3.80;;
25567;SDS011;13455;51.480;7.594;2023-03-12T02:56:36;12.43;;;3.90;;
25567;SDS011;13455;51.480;7.594;2023-03-12T02:59:05;9.05;;;3.95;;
25567;SDS011;13455;51.480;7.594;2023-03-12T03:01:33;10.13;;;3.83;;
25567;SDS011;13455;51.480;7.594;2023-03-12T03:03:59;7.20;;;3.50;;
25567;SDS011;13455;51.480;7.594;2023-03-12T03:06:29;9.75;;;3.70;;
25567;SDS011;13455;51.480;7.594;2023-03-12T03:08:57;8.75;;;3.95;;
25567;SDS011;13455;51.480;7.594;2023-03-12T03:11:26;10.97;;;4.20;;
25567;SDS011;13455;51.480;7.594;2023-03-12T03:13:52;9.43;;;3.80;;
25567;SDS011;13455;51.480;7.594;2023-03-12T03:16:19;9.35;;;3.88;;
25567;SDS011;13455;51.480;7.594;2023-03-12T03:18:45;9.25;;;4.00;;
25567;SDS011;13455;51.480;7.594;2023-03-12T03:21:11;7.88;;;3.75;;
25567;SDS011;13455;51.480;7.594;2023-03-12T03:23:44;9.60;;;3.50;;
25567;SDS011;13455;51.480;7.594;2023-03-12T03:26:11;8.77;;;3.78;;
25567;SDS011;13455;51.480;7.594;2023-03-12T03:28:38;8.50;;;3.78;;
25567;SDS011;13455;51.480;7.594;2023-03-12T03:31:06;7.40;;;3.70;;
25567;SDS011;13455;51.480;7.594;2023-03-12T03:33:33;7.88;;;3.55;;
25567;SDS011;13455;51.480;7.594;2023-03-12T03:36:00;7.75;;;3.40;;
25567;SDS011;13455;51.480;7.594;2023-03-12T03:38:26;6.75;;;3.20;;
25567;SDS011;13455;51.480;7.594;2023-03-12T03:40:53;9.73;;;3.45;;
25567;SDS011;13455;51.480;7.594;2023-03-12T03:43:19;7.85;;;3.53;;
25567;SDS011;13455;51.480;7.594;2023-03-12T03:45:46;7.10;;;3.60;;
25567;SDS011;13455;51.480;7.594;2023-03-12T03:48:12;8.02;;;3.33;;
25567;SDS011;13455;51.480;7.594;2023-03-12T03:50:38;7.97;;;3.45;;
25567;SDS011;13455;51.480;7.594;2023-03-12T03:53:07;9.00;;;3.70;;
25567;SDS011;13455;51.480;7.594;2023-03-12T03:55:37;9.48;;;3.90;;
25567;SDS011;13455;51.480;7.594;2023-03-12T03:58:04;8.55;;;3.65;;
25567;SDS011;13455;51.480;7.594;2023-03-12T04:00:30;8.70;;;3.50;;
25567;SDS011;13455;51.480;7.594;2023-03-12T04:02:56;7.30;;;3.03;;
25567;SDS011;13455;51.480;7.594;2023-03-12T04:05:21;6.43;;;2.90;;
25567;SDS011;13455;51.480;7.594;2023-03-12T04:07:50;7.60;;;2.90;;
25567;SDS011;13455;51.480;7.594;2023-03-12T04:10:17;8.03;;;2.70;;
25567;SDS011;13455;51.480;7.594;2023-03-12T04:12:46;8.20;;;2.90;;
25567;SDS011;13455;51.480;7.594;2023-03-12T04:15:12;7.27;;;3.10;;
25567;SDS011;13455;51.480;7.594;2023-03-12T04:17:38;10.65;;;3.20;;
25567;SDS011;13455;51.480;7.594;2023-03-12T04:20:03;7.60;;;2.92;;
25567;SDS011;13455;51.480;7.594;2023-03-12T04:22:33;8.85;;;3.00;;
25567;SDS011;13455;51.480;7.594;2023-03-12T04:24:59;8.15;;;3.10;;
25567;SDS011;13455;51.480;7.594;2023-03-12T04:27:25;6.63;;;3.00;;
25567;SDS011;13455;51.480;7.594;2023-03-12T04:29:51;10.98;;;3.35;;
25567;SDS011;13455;51.480;7.594;2023-03-12T04:32:17;6.78;;;3.10;;
25567;SDS011;13455;51.480;7.594;2023-03-12T04:34:42;9.43;;;3.07;;
25567;SDS011;13455;51.480;7.594;2023-03-12T04:37:08;8.97;;;3.10;;
25567;SDS011;13455;51.480;7.594;2023-03-12T04:39:40;8.73;;;3.33;;
25567;SDS011;13455;51.480;7.594;2023-03-12T04:42:07;8.82;;;2.97;;
25567;SDS011;13455;51.480;7.594;2023-03-12T04:44:33;8.40;;;3.28;;
25567;SDS011;13455;51.480;7.594;2023-03-12T04:46:59;7.25;;;3.50;;
25567;SDS011;13455;51.480;7.594;2023-03-12T04:49:25;8.27;;;3.53;;
25567;SDS011;13455;51.480;7.594;2023-03-12T04:51:51;8.60;;;3.08;;
25567;SDS011;13455;51.480;7.594;2023-03-12T04:54:16;10.43;;;3.47;;
25567;SDS011;13455;51.480;7.594;2023-03-12T04:56:44;9.00;;;3.20;;
25567;SDS011;13455;51.480;7.594;2023-03-12T04:59:11;7.45;;;3.35;;
25567;SDS011;13455;51.480;7.594;2023-03-12T05:01:37;8.85;;;3.30;;
25567;SDS011;13455;51.480;7.594;2023-03-12T05:04:02;9.20;;;3.10;;
25567;SDS011;13455;51.480;7.594;2023-03-12T05:06:29;7.75;;;3.00;;
25567;SDS011;13455;51.480;7.594;2023-03-12T05:08:54;7.83;;;3.00;;
25567;SDS011;13455;51.480;7.594;2023-03-12T05:11:20;7.63;;;2.93;;
25567;SDS011;13455;51.480;7.594;2023-03-12T05:13:46;6.28;;;2.95;;
25567;SDS011;13455;51.480;7.594;2023-03-12T05:16:12;7.13;;;2.80;;
25567;SDS011;13455;51.480;7.594;2023-03-12T05:18:39;6.45;;;2.90;;
25567;SDS011;13455;51.480;7.594;2023-03-12T05:21:12;7.85;;;2.70;;
25567;SDS011;13455;51.480;7.594;2023-03-12T05:23:40;6.55;;;2.45;;
25567;SDS011;13455;51.480;7.594;2023-03-12T05:26:27;7.97;;;2.70;;
25567;SDS011;13455;51.480;7.594;2023-03-12T05:28:55;5.70;;;2.27;;
25567;SDS011;13455;51.480;7.594;2023-03-12T05:31:22;5.47;;;2.20;;
25567;SDS011;13455;51.480;7.594;2023-03-12T05:33:48;7.07;;;2.35;;
25567;SDS011;13455;51.480;7.594;2023-03-12T05:36:14;6.35;;;2.30;;
25567;SDS011;13455;51.480;7.594;2023-03-12T05:38:40;8.77;;;2.27;;
25567;SDS011;13455;51.480;7.594;2023-03-12T05:41:07;6.78;;;2.17;;
25567;SDS011;13455;51.480;7.594;2023-03-12T05:43:34;7.45;;;2.00;;
25567;SDS011;13455;51.480;7.594;2023-03-12T05:46:01;5.78;;;2.20;;
25567;SDS011;13455;51.480;7.594;2023-03-12T05:48:28;7.15;;;2.13;;
25567;SDS011;13455;51.480;7.594;2023-03-12T05:50:55;7.85;;;2.30;;
25567;SDS011;13455;51.480;7.594;2023-03-12T05:53:21;6.55;;;2.13;;
25567;SDS011;13455;51.480;7.594;2023-03-12T05:55:47;6.30;;;2.00;;
25567;SDS011;13455;51.480;7.594;2023-03-12T05:58:13;6.35;;;2.15;;
25567;SDS011;13455;51.480;7.594;2023-03-12T06:00:39;8.15;;;2.10;;
25567;SDS011;13455;51.480;7.594;2023-03-12T06:03:06;6.40;;;1.98;;
25567;SDS011;13455;51.480;7.594;2023-03-12T06:05:33;4.93;;;2.00;;
25567;SDS011;13455;51.480;7.594;2023-03-12T06:07:59;6.13;;;1.95;;
25567;SDS011;13455;51.480;7.594;2023-03-12T06:10:26;5.43;;;2.10;;
25567;SDS011;13455;51.480;7.594;2023-03-12T06:12:52;6.00;;;1.90;;
25567;SDS011;13455;51.480;7.594;2023-03-12T06:15:18;6.35;;;1.90;;
25567;SDS011;13455;51.480;7.594;2023-03-12T06:17:43;8.52;;;2.10;;
25567;SDS011;13455;51.480;7.594;2023-03-12T06:20:09;5.65;;;1.90;;
25567;SDS011;13455;51.480;7.594;2023-03-12T06:22:35;7.20;;;2.05;;
25567;SDS011;13455;51.480;7.594;2023-03-12T06:25:01;6.53;;;1.80;;
25567;SDS011;13455;51.480;7.594;2023-03-12T06:27:27;8.75;;;2.00;;
25567;SDS011;13455;51.480;7.594;2023-03-12T06:29:53;8.30;;;1.90;;
25567;SDS011;13455;51.480;7.594;2023-03-12T06:32:19;7.97;;;2.20;;
25567;SDS011;13455;51.480;7.594;2023-03-12T06:34:45;6.67;;;2.10;;
25567;SDS011;13455;51.480;7.594;2023-03-12T06:37:11;8.67;;;1.97;;
25567;SDS011;13455;51.480;7.594;2023-03-12T06:39:37;5.18;;;1.98;;
25567;SDS011;13455;51.480;7.594;2023-03-12T06:42:03;7.00;;;1.90;;
25567;SDS011;13455;51.480;7.594;2023-03-12T06:44:29;8.77;;;2.17;;
25567;SDS011;13455;51.480;7.594;2023-03-12T06:46:55;6.95;;;2.00;;
25567;SDS011;13455;51.480;7.594;2023-03-12T06:49:21;8.53;;;1.80;;
25567;SDS011;13455;51.480;7.594;2023-03-12T06:51:47;8.48;;;2.00;;
25567;SDS011;13455;51.480;7.594;2023-03-12T06:54:12;9.50;;;2.03;;
25567;SDS011;13455;51.480;7.594;2023-03-12T06:56:38;6.97;;;2.30;;
25567;SDS011;13455;51.480;7.594;2023-03-12T06:59:04;6.47;;;2.00;;
25567;SDS011;13455;51.480;7.594;2023-03-12T07:01:30;6.72;;;2.20;;
25567;SDS011;13455;51.480;7.594;2023-03-12T07:03:55;8.13;;;2.10;;
25567;SDS011;13455;51.480;7.594;2023-03-12T07:06:21;6.97;;;2.30;;
25567;SDS011;13455;51.480;7.594;2023-03-12T07:08:48;6.40;;;2.50;;
25567;SDS011;13455;51.480;7.594;2023-03-12T07:11:14;8.18;;;3.00;;
25567;SDS011;13455;51.480;7.594;2023-03-12T07:13:41;7.93;;;2.70;;
25567;SDS011;13455;51.480;7.594;2023-03-12T07:16:08;7.20;;;2.70;;
25567;SDS011;13455;51.480;7.594;2023-03-12T07:18:34;7.43;;;2.72;;
25567;SDS011;13455;51.480;7.594;2023-03-12T07:20:59;7.43;;;2.95;;
25567;SDS011;13455;51.480;7.594;2023-03-12T07:23:25;6.00;;;2.60;;
25567;SDS011;13455;51.480;7.594;2023-03-12T07:25:51;7.57;;;2.50;;
25567;SDS011;13455;51.480;7.594;2023-03-12T07:28:17;8.25;;;2.65;;
25567;SDS011;13455;51.480;7.594;2023-03-12T07:30:43;7.20;;;2.63;;
25567;SDS011;13455;51.480;7.594;2023-03-12T07:33:14;7.03;;;2.60;;
25567;SDS011;13455;51.480;7.594;2023-03-12T07:35:41;7.40;;;2.65;;
25567;SDS011;13455;51.480;7.594;2023-03-12T07:38:07;6.90;;;2.80;;
25567;SDS011;13455;51.480;7.594;2023-03-12T07:40:34;5.95;;;2.47;;
25567;SDS011;13455;51.480;7.594;2023-03-12T07:43:01;7.38;;;2.72;;
25567;SDS011;13455;51.480;7.594;2023-03-12T07:45:29;9.55;;;2.90;;
25567;SDS011;13455;51.480;7.594;2023-03-12T07:47:55;8.85;;;2.70;;
25567;SDS011;13455;51.480;7.594;2023-03-12T07:50:21;5.80;;;2.90;;
25567;SDS011;13455;51.480;7.594;2023-03-12T07:52:47;6.85;;;2.83;;
25567;SDS011;13455;51.480;7.594;2023-03-12T07:55:13;7.85;;;2.95;;
25567;SDS011;13455;51.480;7.594;2023-03-12T07:57:40;6.40;;;2.80;;
25567;SDS011;13455;51.480;7.594;2023-03-12T08:00:06;7.38;;;2.90;;
25567;SDS011;13455;51.480;7.594;2023-03-12T08:02:34;8.75;;;3.13;;
25567;SDS011;13455;51.480;7.594;2023-03-12T08:04:59;11.60;;;3.47;;
25567;SDS011;13455;51.480;7.594;2023-03-12T08:07:25;8.10;;;3.10;;
25567;SDS011;13455;51.480;7.594;2023-03-12T08:09:56;8.73;;;3.27;;
25567;SDS011;13455;51.480;7.594;2023-03-12T08:12:22;10.57;;;3.75;;
25567;SDS011;13455;51.480;7.594;2023-03-12T08:14:48;8.18;;;3.85;;
25567;SDS011;13455;51.480;7.594;2023-03-12T08:17:14;9.68;;;4.00;;
25567;SDS011;13455;51.480;7.594;2023-03-12T08:19:41;6.97;;;3.65;;
25567;SDS011;13455;51.480;7.594;2023-03-12T08:22:07;7.47;;;4.07;;
25567;SDS011;13455;51.480;7.594;2023-03-12T08:24:32;9.05;;;4.18;;
25567;SDS011;13455;51.480;7.594;2023-03-12T08:27:00;8.93;;;4.03;;
25567;SDS011;13455;51.480;7.594;2023-03-12T08:29:26;9.90;;;4.07;;
25567;SDS011;13455;51.480;7.594;2023-03-12T08:31:52;8.73;;;4.13;;
25567;SDS011;13455;51.480;7.594;2023-03-12T08:34:18;8.38;;;4.18;;
25567;SDS011;13455;51.480;7.594;2023-03-12T08:36:44;8.73;;;3.90;;
25567;SDS011;13455;51.480;7.594;2023-03-12T08:39:10;7.93;;;4.10;;
25567;SDS011;13455;51.480;7.594;2023-03-12T08:41:36;10.65;;;4.20;;
25567;SDS011;13455;51.480;7.594;2023-03-12T08:44:01;9.30;;;4.13;;
25567;SDS011;13455;51.480;7.594;2023-03-12T08:46:28;8.25;;;4.10;;
25567;SDS011;13455;51.480;7.594;2023-03-12T08:48:53;8.38;;;4.10;;
25567;SDS011;13455;51.480;7.594;2023-03-12T08:51:19;8.57;;;4.22;;
25567;SDS011;13455;51.480;7.594;2023-03-12T08:53:45;7.80;;;4.43;;
25567;SDS011;13455;51.480;7.594;2023-03-12T08:56:12;7.35;;;3.90;;
25567;SDS011;13455;51.480;7.594;2023-03-12T08:58:38;10.37;;;4.00;;
25567;SDS011;13455;51.480;7.594;2023-03-12T09:01:07;9.10;;;4.03;;
25567;SDS011;13455;51.480;7.594;2023-03-12T09:03:34;7.65;;;3.92;;
25567;SDS011;13455;51.480;7.594;2023-03-12T09:06:07;10.20;;;4.05;;
25567;SDS011;13455;51.480;7.594;2023-03-12T09:08:42;7.40;;;3.55;;
25567;SDS011;13455;51.480;7.594;2023-03-12T09:11:08;8.25;;;3.60;;
25567;SDS011;13455;51.480;7.594;2023-03-12T09:13:34;8.35;;;3.70;;
25567;SDS011;13455;51.480;7.594;2023-03-12T09:16:01;8.93;;;3.90;;
25567;SDS011;13455;51.480;7.594;2023-03-12T09:18:28;8.75;;;4.03;;
25567;SDS011;13455;51.480;7.594;2023-03-12T09:20:54;10.32;;;4.57;;
25567;SDS011;13455;51.480;7.594;2023-03-12T09:23:20;9.38;;;4.15;;
25567;SDS011;13455;51.480;7.594;2023-03-12T09:25:46;8.80;;;4.25;;
25567;SDS011;13455;51.480;7.594;2023-03-12T09:28:12;6.68;;;3.53;;
25567;SDS011;13455;51.480;7.594;2023-03-12T09:30:39;8.90;;;3.60;;
25567;SDS011;13455;51.480;7.594;2023-03-12T09:33:05;9.40;;;3.90;;
25567;SDS011;13455;51.480;7.594;2023-03-12T09:35:31;8.80;;;3.60;;
25567;SDS011;13455;51.480;7.594;2023-03-12T09:37:57;8.23;;;3.60;;
25567;SDS011;13455;51.480;7.594;2023-03-12T09:40:24;8.30;;;3.70;;
25567;SDS011;13455;51.480;7.594;2023-03-12T09:43:01;8.57;;;4.10;;
25567;SDS011;13455;51.480;7.594;2023-03-12T09:45:35;8.40;;;3.90;;
25567;SDS011;13455;51.480;7.594;2023-03-12T09:48:03;6.53;;;3.80;;
25567;SDS011;13455;51.480;7.594;2023-03-12T09:55:23;7.13;;;3.40;;
25567;SDS011;13455;51.480;7.594;2023-03-12T09:57:50;7.60;;;3.57;;
25567;SDS011;13455;51.480;7.594;2023-03-12T10:00:20;5.80;;;3.47;;
25567;SDS011;13455;51.480;7.594;2023-03-12T10:18:11;5.88;;;2.90;;
25567;SDS011;13455;51.480;7.594;2023-03-12T10:25:38;3.90;;;2.30;;
25567;SDS011;13455;51.480;7.594;2023-03-12T10:28:13;4.55;;;2.40;;
25567;SDS011;13455;51.480;7.594;2023-03-12T10:30:40;3.85;;;2.10;;
25567;SDS011;13455;51.480;7.594;2023-03-12T10:33:09;3.75;;;2.30;;
25567;SDS011;13455;51.480;7.594;2023-03-12T10:35:37;3.73;;;2.10;;
25567;SDS011;13455;51.480;7.594;2023-03-12T10:38:04;3.58;;;1.90;;
25567;SDS011;13455;51.480;7.594;2023-03-12T10:40:36;3.40;;;2.00;;
25567;SDS011;13455;51.480;7.594;2023-03-12T10:43:03;2.97;;;1.90;;
25567;SDS011;13455;51.480;7.594;2023-03-12T10:45:38;3.50;;;2.10;;
25567;SDS011;13455;51.480;7.594;2023-03-12T10:48:09;3.67;;;2.20;;
25567;SDS011;13455;51.480;7.594;2023-03-12T10:50:36;3.60;;;2.00;;
25567;SDS011;13455;51.480;7.594;2023-03-12T10:53:22;3.40;;;2.03;;
25567;SDS011;13455;51.480;7.594;2023-03-12T10:55:57;2.72;;;1.70;;
25567;SDS011;13455;51.480;7.594;2023-03-12T10:58:23;3.17;;;1.80;;
25567;SDS011;13455;51.480;7.594;2023-03-12T11:00:53;3.03;;;1.90;;
25567;SDS011;13455;51.480;7.594;2023-03-12T11:03:20;2.97;;;1.95;;
25567;SDS011;13455;51.480;7.594;2023-03-12T11:05:47;2.67;;;1.70;;
25567;SDS011;13455;51.480;7.594;2023-03-12T11:11:09;2.80;;;1.67;;
25567;SDS011;13455;51.480;7.594;2023-03-12T11:13:39;2.72;;;1.67;;
25567;SDS011;13455;51.480;7.594;2023-03-12T11:18:52;3.58;;;1.90;;
25567;SDS011;13455;51.480;7.594;2023-03-12T11:21:19;3.35;;;1.77;;
25567;SDS011;13455;51.480;7.594;2023-03-12T11:31:21;2.33;;;1.60;;
25567;SDS011;13455;51.480;7.594;2023-03-12T11:33:48;2.78;;;1.40;;
25567;SDS011;13455;51.480;7.594;2023-03-12T11:38:54;1.93;;;1.20;;
25567;SDS011;13455;51.480;7.594;2023-03-12T11:56:58;3.20;;;1.73;;
25567;SDS011;13455;51.480;7.594;2023-03-12T12:07:44;2.88;;;2.00;;
25567;SDS011;13455;51.480;7.594;2023-03-12T12:10:16;3.47;;;2.50;;
25567;SDS011;13455;51.480;7.594;2023-03-12T12:12:53;5.00;;;3.00;;
25567;SDS011;13455;51.480;7.594;2023-03-12T12:23:33;4.43;;;2.50;;
25567;SDS011;13455;51.480;7.594;2023-03-12T12:26:23;3.33;;;2.17;;
25567;SDS011;13455;51.480;7.594;2023-03-12T12:28:53;3.47;;;2.30;;
25567;SDS011;13455;51.480;7.594;2023-03-12T12:31:34;3.85;;;2.30;;
25567;SDS011;13455;51.480;7.594;2023-03-12T12:36:36;3.27;;;2.10;;
25567;SDS011;13455;51.480;7.594;2023-03-12T12:39:14;3.35;;;2.15;;
25567;SDS011;13455;51.480;7.594;2023-03-12T12:41:43;3.80;;;2.33;;
25567;SDS011;13455;51.480;7.594;2023-03-12T12:44:11;2.50;;;2.03;;
25567;SDS011;13455;51.480;7.594;2023-03-12T12:46:39;2.73;;;2.10;;
25567;SDS011;13455;51.480;7.594;2023-03-12T12:49:18;3.33;;;2.10;;
25567;SDS011;13455;51.480;7.594;2023-03-12T12:51:56;3.37;;;2.27;;
25567;SDS011;13455;51.480;7.594;2023-03-12T12:54:28;4.05;;;2.50;;
25567;SDS011;13455;51.480;7.594;2023-03-12T12:57:02;3.50;;;2.42;;
25567;SDS011;13455;51.480;7.594;2023-03-12T13:01:56;5.53;;;2.67;;
25567;SDS011;13455;51.480;7.594;2023-03-12T13:04:30;4.30;;;2.70;;
25567;SDS011;13455;51.480;7.594;2023-03-12T13:09:49;5.37;;;3.30;;
25567;SDS011;13455;51.480;7.594;2023-03-12T13:14:58;4.97;;;3.30;;
25567;SDS011;13455;51.480;7.594;2023-03-12T13:20:13;5.70;;;3.70;;
25567;SDS011;13455;51.480;7.594;2023-03-12T13:27:43;7.20;;;4.70;;
25567;SDS011;13455;51.480;7.594;2023-03-12T13:43:09;5.90;;;4.38;;
25567;SDS011;13455;51.480;7.594;2023-03-12T13:45:57;7.90;;;4.28;;
25567;SDS011;13455;51.480;7.594;2023-03-12T13:48:24;7.10;;;4.40;;
25567;SDS011;13455;51.480;7.594;2023-03-12T13:50:52;9.35;;;4.80;;
25567;SDS011;13455;51.480;7.594;2023-03-12T13:53:21;8.48;;;4.72;;
25567;SDS011;13455;51.480;7.594;2023-03-12T13:56:03;7.85;;;4.88;;
25567;SDS011;13455;51.480;7.594;2023-03-12T13:58:30;9.57;;;4.95;;
25567;SDS011;13455;51.480;7.594;2023-03-12T14:01:00;10.00;;;5.53;;
25567;SDS011;13455;51.480;7.594;2023-03-12T14:03:37;10.50;;;5.27;;
25567;SDS011;13455;51.480;7.594;2023-03-12T14:18:33;18.90;;;6.50;;
25567;SDS011;13455;51.480;7.594;2023-03-12T14:21:01;18.42;;;6.40;;
25567;SDS011;13455;51.480;7.594;2023-03-12T14:23:35;23.88;;;6.95;;
25567;SDS011;13455;51.480;7.594;2023-03-12T14:26:02;18.05;;;6.75;;
25567;SDS011;13455;51.480;7.594;2023-03-12T14:28:31;21.58;;;6.53;;
25567;SDS011;13455;51.480;7.594;2023-03-12T14:31:02;23.73;;;6.47;;
25567;SDS011;13455;51.480;7.594;2023-03-12T14:33:54;20.73;;;6.87;;
25567;SDS011;13455;51.480;7.594;2023-03-12T14:36:17;20.67;;;6.57;;
25567;SDS011;13455;51.480;7.594;2023-03-12T14:38:45;22.98;;;6.95;;
25567;SDS011;13455;51.480;7.594;2023-03-12T14:41:20;26.03;;;6.70;;
25567;SDS011;13455;51.480;7.594;2023-03-12T14:43:50;25.52;;;7.28;;
25567;SDS011;13455;51.480;7.594;2023-03-12T14:46:17;24.55;;;7.03;;
25567;SDS011;13455;51.480;7.594;2023-03-12T14:48:46;24.10;;;7.15;;
25567;SDS011;13455;51.480;7.594;2023-03-12T14:51:21;25.27;;;6.57;;
25567;SDS011;13455;51.480;7.594;2023-03-12T14:53:54;26.30;;;6.80;;
25567;SDS011;13455;51.480;7.594;2023-03-12T14:58:48;25.98;;;6.75;;
25567;SDS011;13455;51.480;7.594;2023-03-12T15:01:17;26.02;;;7.25;;
25567;SDS011;13455;51.480;7.594;2023-03-12T15:03:47;23.98;;;6.32;;
25567;SDS011;13455;51.480;7.594;2023-03-12T15:06:16;26.73;;;6.85;;
25567;SDS011;13455;51.480;7.594;2023-03-12T15:08:43;26.08;;;6.50;;
25567;SDS011;13455;51.480;7.594;2023-03-12T15:11:09;27.07;;;6.73;;
25567;SDS011;13455;51.480;7.594;2023-03-12T15:13:36;27.00;;;6.75;;
25567;SDS011;13455;51.480;7.594;2023-03-12T15:16:03;28.00;;;7.47;;
25567;SDS011;13455;51.480;7.594;2023-03-12T15:18:30;23.90;;;6.72;;
25567;SDS011;13455;51.480;7.594;2023-03-12T15:20:57;28.33;;;6.28;;
25567;SDS011;13455;51.480;7.594;2023-03-12T15:23:24;35.25;;;7.00;;
25567;SDS011;13455;51.480;7.594;2023-03-12T15:28:35;29.42;;;6.90;;
25567;SDS011;13455;51.480;7.594;2023-03-12T15:31:14;29.88;;;7.13;;
25567;SDS011;13455;51.480;7.594;2023-03-12T15:33:41;26.75;;;6.30;;
25567;SDS011;13455;51.480;7.594;2023-03-12T15:38:49;28.45;;;5.93;;
25567;SDS011;13455;51.480;7.594;2023-03-12T15:44:20;26.55;;;5.45;;
25567;SDS011;13455;51.480;7.594;2023-03-12T15:46:48;25.65;;;5.60;;
25567;SDS011;13455;51.480;7.594;2023-03-12T15:49:20;25.58;;;5.13;;
25567;SDS011;13455;51.480;7.594;2023-03-12T15:51:57;26.63;;;5.93;;
25567;SDS011;13455;51.480;7.594;2023-03-12T15:54:41;26.30;;;5.53;;
25567;SDS011;13455;51.480;7.594;2023-03-12T15:57:21;29.30;;;5.72;;
25567;SDS011;13455;51.480;7.594;2023-03-12T16:02:34;28.27;;;5.35;;
25567;SDS011;13455;51.480;7.594;2023-03-12T16:05:01;28.05;;;5.05;;
25567;SDS011;13455;51.480;7.594;2023-03-12T16:07:27;24.03;;;4.87;;
25567;SDS011;13455;51.480;7.594;2023-03-12T16:09:53;28.47;;;6.40;;
25567;SDS011;13455;51.480;7.594;2023-03-12T16:12:18;28.20;;;5.60;;
25567;SDS011;13455;51.480;7.594;2023-03-12T16:14:44;29.70;;;5.23;;
25567;SDS011;13455;51.480;7.594;2023-03-12T16:17:12;28.75;;;5.20;;
25567;SDS011;13455;51.480;7.594;2023-03-12T16:19:41;29.13;;;5.27;;
25567;SDS011;13455;51.480;7.594;2023-03-12T16:22:07;28.17;;;5.25;;
25567;SDS011;13455;51.480;7.594;2023-03-12T16:24:32;27.40;;;4.97;;
25567;SDS011;13455;51.480;7.594;2023-03-12T16:26:58;26.95;;;4.82;;
25567;SDS011;13455;51.480;7.594;2023-03-12T16:29:34;28.50;;;5.40;;
25567;SDS011;13455;51.480;7.594;2023-03-12T16:32:01;25.60;;;4.75;;
25567;SDS011;13455;51.480;7.594;2023-03-12T16:34:34;29.60;;;5.30;;
25567;SDS011;13455;51.480;7.594;2023-03-12T16:37:00;28.77;;;5.88;;
25567;SDS011;13455;51.480;7.594;2023-03-12T16:39:25;33.30;;;5.60;;
25567;SDS011;13455;51.480;7.594;2023-03-12T16:41:54;26.35;;;5.35;;
25567;SDS011;13455;51.480;7.594;2023-03-12T16:44:20;28.38;;;5.57;;
25567;SDS011;13455;51.480;7.594;2023-03-12T16:46:46;28.80;;;5.60;;
25567;SDS011;13455;51.480;7.594;2023-03-12T16:49:15;33.67;;;5.77;;
25567;SDS011;13455;51.480;7.594;2023-03-12T16:51:42;28.77;;;5.20;;
25567;SDS011;13455;51.480;7.594;2023-03-12T16:54:07;28.83;;;6.40;;
25567;SDS011;13455;51.480;7.594;2023-03-12T16:56:34;34.07;;;6.60;;
25567;SDS011;13455;51.480;7.594;2023-03-12T16:59:03;29.90;;;5.43;;
25567;SDS011;13455;51.480;7.594;2023-03-12T17:01:32;34.80;;;6.05;;
25567;SDS011;13455;51.480;7.594;2023-03-12T17:04:06;33.67;;;5.60;;
25567;SDS011;13455;51.480;7.594;2023-03-12T17:06:32;29.40;;;5.50;;